createdAt,value
2022-11-08T00:00:42.309Z,1.30
2022-11-08T00:03:09.539Z,1.25
2022-11-08T00:05:55.412Z,1.27
2022-11-08T00:08:40.659Z,1.40
2022-11-08T00:11:26.720Z,1.20
2022-11-08T00:14:03.088Z,1.30
2022-11-08T00:16:30.577Z,1.25
2022-11-08T00:18:58.397Z,1.40
2022-11-08T00:21:25.877Z,1.33
2022-11-08T00:23:53.465Z,1.05
2022-11-08T00:26:20.712Z,1.20
2022-11-08T00:28:47.808Z,1.08
2022-11-08T00:31:14.941Z,1.02
2022-11-08T00:33:41.979Z,1.20
2022-11-08T00:36:09.636Z,1.02
2022-11-08T00:38:36.844Z,0.95
2022-11-08T00:41:03.914Z,1.10
2022-11-08T00:43:30.922Z,0.90
2022-11-08T00:45:58.056Z,0.98
2022-11-08T00:48:25.325Z,1.17
2022-11-08T00:50:52.334Z,0.95
2022-11-08T00:53:19.630Z,0.90
2022-11-08T00:55:46.699Z,1.17
2022-11-08T00:58:13.845Z,0.98
2022-11-08T01:00:41.017Z,0.93
2022-11-08T01:03:20.111Z,1.02
2022-11-08T01:05:53.530Z,1.10
2022-11-08T01:08:23.246Z,1.20
2022-11-08T01:10:52.159Z,1.30
2022-11-08T01:13:19.857Z,1.27
2022-11-08T01:15:47.263Z,1.17
2022-11-08T01:18:19.173Z,1.00
2022-11-08T01:20:48.932Z,1.15
2022-11-08T01:23:18.800Z,1.02
2022-11-08T01:25:48.330Z,1.20
2022-11-08T01:28:16.295Z,1.00
2022-11-08T01:30:45.040Z,1.25
2022-11-08T01:33:13.442Z,0.98
2022-11-08T01:35:41.261Z,0.80
2022-11-08T01:38:09.604Z,0.80
2022-11-08T01:40:46.766Z,0.90
2022-11-08T01:43:30.580Z,0.90
2022-11-08T01:46:39.647Z,0.85
2022-11-08T01:49:43.519Z,0.90
2022-11-08T01:52:28.342Z,0.70
2022-11-08T01:55:24.256Z,1.27
2022-11-08T01:58:04.013Z,1.98
2022-11-08T02:00:31.395Z,2.00
2022-11-08T02:03:02.957Z,2.22
2022-11-08T02:05:31.565Z,2.13
2022-11-08T02:08:09.694Z,2.35
2022-11-08T02:10:43.698Z,2.50
2022-11-08T02:13:23.622Z,2.50
2022-11-08T02:15:50.738Z,2.20
2022-11-08T02:18:22.016Z,1.92
2022-11-08T02:21:20.354Z,1.40
2022-11-08T02:23:50.862Z,1.52
2022-11-08T02:26:23.317Z,1.00
2022-11-08T02:28:51.405Z,1.25
2022-11-08T02:31:20.377Z,0.82
2022-11-08T02:33:48.625Z,0.90
2022-11-08T02:36:23.509Z,1.00
2022-11-08T02:38:57.814Z,0.82
2022-11-08T02:41:24.963Z,0.80
2022-11-08T02:43:51.977Z,1.15
2022-11-08T02:46:19.341Z,1.10
2022-11-08T02:48:46.358Z,1.35
2022-11-08T02:51:13.509Z,1.42
2022-11-08T02:53:40.484Z,1.77
2022-11-08T02:56:07.929Z,1.30
2022-11-08T02:58:35.097Z,1.67
2022-11-08T03:01:02.116Z,1.58
2022-11-08T03:03:29.400Z,1.38
2022-11-08T03:05:59.593Z,1.20
2022-11-08T03:08:26.613Z,1.05
2022-11-08T03:10:53.740Z,1.00
2022-11-08T03:13:20.899Z,1.05
2022-11-08T03:15:47.990Z,1.20
2022-11-08T03:18:15.408Z,1.20
2022-11-08T03:20:42.929Z,1.05
2022-11-08T03:23:10.189Z,1.02
2022-11-08T03:25:37.272Z,0.82
2022-11-08T03:28:06.868Z,1.20
2022-11-08T03:30:35.530Z,0.82
2022-11-08T03:33:03.306Z,1.00
2022-11-08T03:35:30.457Z,0.95
2022-11-08T03:37:58.313Z,1.10
2022-11-08T03:40:26.683Z,0.90
2022-11-08T03:42:56.277Z,1.17
2022-11-08T03:45:23.463Z,0.93
2022-11-08T03:47:50.554Z,1.00
2022-11-08T03:50:17.981Z,1.20
2022-11-08T03:52:54.099Z,1.13
2022-11-08T03:55:24.237Z,0.95
2022-11-08T03:57:52.033Z,0.90
2022-11-08T04:00:23.068Z,1.35
2022-11-08T04:02:50.335Z,0.90
2022-11-08T04:05:18.350Z,1.10
2022-11-08T04:07:45.619Z,1.15
2022-11-08T04:10:13.586Z,1.05
2022-11-08T04:13:02.861Z,1.17
2022-11-08T04:15:31.435Z,1.02
2022-11-08T04:18:22.274Z,1.10
2022-11-08T04:21:08.124Z,0.90
2022-11-08T04:23:37.615Z,0.85
2022-11-08T04:26:08.051Z,0.90
2022-11-08T04:28:37.543Z,1.08
2022-11-08T04:31:19.530Z,1.20
2022-11-08T04:33:47.033Z,1.10
2022-11-08T04:36:16.884Z,1.38
2022-11-08T04:38:47.559Z,1.23
2022-11-08T04:41:16.893Z,1.33
2022-11-08T04:43:44.299Z,1.33
2022-11-08T04:46:17.619Z,1.23
2022-11-08T04:48:45.257Z,1.40
2022-11-08T04:51:19.260Z,1.23
2022-11-08T04:53:46.542Z,1.40
2022-11-08T04:56:19.689Z,1.50
2022-11-08T04:59:11.727Z,1.50
2022-11-08T05:01:39.428Z,1.80
2022-11-08T05:04:07.018Z,1.45
2022-11-08T05:06:34.056Z,1.40
2022-11-08T05:09:01.558Z,1.60
2022-11-08T05:11:30.904Z,1.42
2022-11-08T05:13:58.327Z,1.70
2022-11-08T05:16:32.309Z,1.60
2022-11-08T05:18:59.794Z,1.58
2022-11-08T05:21:46.224Z,1.60
2022-11-08T05:24:16.395Z,1.55
2022-11-08T05:26:46.914Z,1.73
2022-11-08T05:29:16.743Z,1.67
2022-11-08T05:31:44.134Z,1.58
2022-11-08T05:34:11.276Z,2.22
2022-11-08T05:36:38.500Z,2.08
2022-11-08T05:39:05.654Z,1.90
2022-11-08T05:41:32.837Z,1.60
2022-11-08T05:43:59.952Z,1.35
2022-11-08T05:46:27.199Z,1.40
2022-11-08T05:48:54.636Z,1.50
2022-11-08T05:51:22.267Z,1.80
2022-11-08T05:53:49.548Z,1.50
2022-11-08T05:56:17.833Z,1.73
2022-11-08T05:58:45.970Z,1.50
2022-11-08T06:01:19.548Z,1.63
2022-11-08T06:03:48.716Z,1.65
2022-11-08T06:06:20.293Z,1.73
2022-11-08T06:08:50.556Z,1.35
2022-11-08T06:13:49.741Z,1.25
2022-11-08T06:16:19.503Z,1.40
2022-11-08T06:18:47.354Z,1.33
2022-11-08T06:21:18.844Z,1.70
2022-11-08T06:23:46.789Z,1.58
2022-11-08T06:26:13.958Z,1.60
2022-11-08T06:28:41.263Z,1.70
2022-11-08T06:31:08.437Z,1.80
2022-11-08T06:33:35.896Z,1.98
2022-11-08T06:36:03.252Z,2.03
2022-11-08T06:38:30.521Z,1.90
2022-11-08T06:41:01.752Z,1.90
2022-11-08T06:43:29.119Z,1.65
2022-11-08T06:46:03.455Z,1.60
2022-11-08T06:48:35.530Z,1.65
2022-11-08T06:51:03.948Z,1.60
2022-11-08T06:53:32.132Z,1.65
2022-11-08T06:56:03.196Z,1.70
2022-11-08T06:58:31.130Z,1.80
2022-11-08T07:00:58.490Z,2.05
2022-11-08T07:03:25.855Z,2.08
2022-11-08T07:05:52.973Z,1.77
2022-11-08T07:08:23.560Z,1.52
2022-11-08T07:10:50.949Z,1.70
2022-11-08T07:13:18.285Z,1.40
2022-11-08T07:15:47.709Z,1.40
2022-11-08T07:18:17.178Z,1.25
2022-11-08T07:20:44.559Z,1.50
2022-11-08T07:23:12.694Z,1.30
2022-11-08T07:25:39.847Z,1.20
2022-11-08T07:28:12.645Z,1.15
2022-11-08T07:30:39.715Z,1.23
2022-11-08T07:33:06.771Z,1.42
2022-11-08T07:35:34.695Z,1.42
2022-11-08T07:38:01.891Z,1.60
2022-11-08T07:40:29.048Z,2.08
2022-11-08T07:43:15.216Z,1.60
2022-11-08T07:45:43.196Z,1.45
2022-11-08T07:48:13.568Z,1.67
2022-11-08T07:50:42.535Z,1.48
2022-11-08T07:53:10.342Z,1.33
2022-11-08T07:55:39.109Z,1.58
2022-11-08T07:58:06.960Z,1.58
2022-11-08T08:00:36.887Z,1.60
2022-11-08T08:03:06.744Z,1.63
2022-11-08T08:05:38.188Z,1.30
2022-11-08T08:08:05.902Z,1.27
2022-11-08T08:10:33.622Z,1.38
2022-11-08T08:13:01.841Z,1.50
2022-11-08T08:15:29.092Z,1.48
2022-11-08T08:17:56.485Z,1.38
2022-11-08T08:20:23.989Z,1.13
2022-11-08T08:22:52.278Z,1.45
2022-11-08T08:25:19.829Z,1.50
2022-11-08T08:27:55.676Z,1.35
2022-11-08T08:30:24.580Z,1.48
2022-11-08T08:33:14.692Z,1.50
2022-11-08T08:35:40.770Z,1.38
2022-11-08T08:38:07.927Z,1.60
2022-11-08T08:40:35.311Z,1.42
2022-11-08T08:43:05.075Z,1.30
2022-11-08T08:45:34.877Z,1.45
2022-11-08T08:48:02.868Z,1.48
2022-11-08T08:50:32.102Z,1.33
2022-11-08T08:53:04.995Z,1.40
2022-11-08T08:55:35.452Z,1.55
2022-11-08T08:58:03.616Z,1.45
2022-11-08T09:03:18.421Z,1.38
2022-11-08T09:05:47.002Z,1.65
2022-11-08T09:08:15.209Z,1.50
2022-11-08T09:10:43.234Z,1.45
2022-11-08T09:13:10.972Z,1.25
2022-11-08T09:15:39.615Z,1.77
2022-11-08T09:18:07.160Z,1.77
2022-11-08T09:20:34.509Z,1.70
2022-11-08T09:23:03.480Z,1.65
2022-11-08T09:25:31.130Z,1.60
2022-11-08T09:27:58.309Z,1.80
2022-11-08T09:30:26.437Z,1.80
2022-11-08T09:33:00.953Z,1.70
2022-11-08T09:35:30.156Z,1.88
2022-11-08T09:37:58.496Z,1.88
2022-11-08T09:40:57.228Z,1.55
2022-11-08T09:43:59.594Z,1.60
2022-11-08T09:49:03.545Z,1.40
2022-11-08T09:51:32.292Z,1.83
2022-11-08T09:54:01.244Z,1.63
2022-11-08T09:56:32.230Z,1.80
2022-11-08T09:59:30.758Z,1.77
2022-11-08T10:01:57.933Z,1.80
2022-11-08T10:04:30.588Z,1.92
2022-11-08T10:07:20.232Z,1.60
2022-11-08T10:10:24.686Z,1.42
2022-11-08T10:13:03.084Z,1.48
2022-11-08T10:16:00.493Z,1.30
2022-11-08T10:19:08.782Z,1.40
2022-11-08T10:22:33.358Z,1.30
2022-11-08T10:25:04.088Z,1.40
2022-11-08T10:27:40.653Z,1.60
2022-11-08T10:30:23.957Z,1.50
2022-11-08T10:32:56.185Z,1.50
2022-11-08T10:35:38.906Z,1.60
2022-11-08T10:38:19.220Z,1.58
2022-11-08T10:41:36.002Z,1.60
2022-11-08T10:44:22.651Z,1.83
2022-11-08T10:46:51.367Z,1.48
2022-11-08T10:49:39.953Z,1.60
2022-11-08T10:52:35.636Z,1.52
2022-11-08T10:55:06.628Z,1.58
2022-11-08T10:57:39.574Z,1.60
2022-11-08T11:00:22.210Z,1.75
2022-11-08T11:02:56.677Z,1.50
2022-11-08T11:05:37.017Z,1.38
2022-11-08T11:08:10.224Z,1.60
2022-11-08T11:10:44.328Z,1.50
2022-11-08T11:13:24.748Z,1.63
2022-11-08T11:15:56.311Z,1.50
2022-11-08T11:18:47.067Z,1.48
2022-11-08T11:21:23.451Z,1.48
2022-11-08T11:23:53.029Z,1.45
2022-11-08T11:26:34.467Z,1.85
2022-11-08T11:29:04.718Z,1.73
2022-11-08T11:31:42.336Z,1.60
2022-11-08T11:34:18.626Z,1.70
2022-11-08T11:36:58.418Z,1.50
2022-11-08T11:40:09.145Z,1.85
2022-11-08T11:42:55.586Z,1.90
2022-11-08T11:45:39.123Z,1.55
2022-11-08T11:48:26.596Z,1.67
2022-11-08T11:50:54.148Z,1.60
2022-11-08T11:53:33.134Z,1.63
2022-11-08T11:56:18.930Z,1.77
2022-11-08T11:59:08.343Z,1.77
2022-11-08T12:02:09.586Z,1.52
2022-11-08T12:05:46.216Z,1.60
2022-11-08T12:08:16.658Z,1.58
2022-11-08T12:11:38.385Z,1.92
2022-11-08T12:14:33.251Z,1.40
2022-11-08T12:17:34.897Z,1.45
2022-11-08T12:20:51.004Z,1.52
2022-11-08T12:23:37.317Z,1.33
2022-11-08T12:26:22.193Z,1.67
2022-11-08T12:28:58.942Z,1.60
2022-11-08T12:31:33.452Z,1.42
2022-11-08T12:34:23.200Z,1.70
2022-11-08T12:37:34.460Z,1.60
2022-11-08T12:40:15.786Z,1.40
2022-11-08T12:42:53.683Z,1.60
2022-11-08T12:45:50.348Z,1.50
2022-11-08T12:49:03.682Z,1.40
2022-11-08T12:52:10.617Z,1.33
2022-11-08T12:55:00.594Z,1.35
2022-11-08T12:57:28.649Z,1.10
2022-11-08T13:00:06.460Z,1.25
2022-11-08T13:02:37.995Z,1.38
2022-11-08T13:05:24.600Z,1.13
2022-11-08T13:08:13.012Z,1.10
2022-11-08T13:11:01.581Z,1.17
2022-11-08T13:13:46.453Z,1.10
2022-11-08T13:16:23.024Z,1.20
2022-11-08T13:18:54.633Z,1.00
2022-11-08T13:21:27.988Z,1.10
2022-11-08T13:24:43.331Z,0.98
2022-11-08T13:27:30.249Z,0.82
2022-11-08T13:30:25.441Z,1.00
2022-11-08T13:33:01.518Z,0.90
2022-11-08T13:36:00.408Z,0.80
2022-11-08T13:38:48.530Z,1.08
2022-11-08T13:41:20.240Z,1.00
2022-11-08T13:43:49.528Z,1.00
2022-11-08T13:46:31.736Z,0.50
2022-11-08T13:49:03.420Z,0.60
2022-11-08T13:51:41.524Z,0.68
2022-11-08T13:54:23.602Z,0.63
2022-11-08T13:59:32.389Z,0.60
2022-11-08T14:02:04.144Z,0.60
2022-11-08T14:04:40.813Z,0.75
2022-11-08T14:07:39.720Z,0.57
2022-11-08T14:10:30.125Z,0.80
2022-11-08T14:13:32.628Z,0.57
2022-11-08T14:16:09.265Z,0.75
2022-11-08T14:18:39.305Z,0.80
2022-11-08T14:21:07.716Z,0.70
2022-11-08T14:23:39.281Z,0.80
2022-11-08T14:26:27.668Z,0.80
2022-11-08T14:29:00.080Z,0.65
2022-11-08T14:31:31.303Z,0.65
2022-11-08T14:34:00.482Z,0.70
2022-11-08T14:36:31.035Z,0.65
2022-11-08T14:39:12.169Z,0.63
2022-11-08T14:41:39.863Z,0.70
2022-11-08T14:44:15.460Z,0.60
2022-11-08T14:46:43.205Z,0.70
2022-11-08T14:49:15.799Z,0.73
2022-11-08T14:51:43.627Z,0.77
2022-11-08T14:54:26.673Z,1.33
2022-11-08T14:56:55.380Z,1.55
2022-11-08T14:59:24.840Z,1.50
2022-11-08T15:01:52.310Z,1.80
2022-11-08T15:04:26.070Z,1.60
2022-11-08T15:06:56.810Z,1.70
2022-11-08T15:09:35.405Z,1.50
2022-11-08T15:12:14.622Z,1.60
2022-11-08T15:14:52.636Z,1.30
2022-11-08T15:17:39.287Z,1.13
2022-11-08T15:20:13.233Z,0.90
2022-11-08T15:22:40.510Z,0.90
2022-11-08T15:25:24.318Z,1.17
2022-11-08T15:27:57.686Z,1.40
2022-11-08T15:30:30.474Z,1.25
2022-11-08T15:32:58.049Z,1.70
2022-11-08T15:35:29.437Z,2.55
2022-11-08T15:38:33.508Z,3.60
2022-11-08T15:41:04.440Z,4.28
2022-11-08T15:43:31.450Z,3.60
2022-11-08T15:46:04.534Z,5.10
2022-11-08T15:48:33.433Z,7.57
2022-11-08T15:51:00.663Z,7.70
2022-11-08T15:53:28.536Z,7.18
2022-11-08T15:56:02.703Z,6.35
2022-11-08T15:58:42.508Z,7.13
2022-11-08T16:01:23.016Z,7.03
2022-11-08T16:03:50.450Z,5.13
2022-11-08T16:06:17.757Z,3.85
2022-11-08T16:08:44.913Z,3.30
2022-11-08T16:11:21.317Z,2.78
2022-11-08T16:13:49.642Z,2.30
2022-11-08T16:16:18.200Z,1.70
2022-11-08T16:18:46.211Z,3.20
2022-11-08T16:21:14.717Z,3.72
2022-11-08T16:23:42.781Z,2.63
2022-11-08T16:26:18.101Z,2.00
2022-11-08T16:28:45.608Z,2.00
2022-11-08T16:31:17.805Z,2.22
2022-11-08T16:33:46.869Z,3.00
2022-11-08T16:36:27.649Z,3.70
2022-11-08T16:38:57.167Z,2.58
2022-11-08T16:41:26.094Z,2.35
2022-11-08T16:43:53.855Z,2.00
2022-11-08T16:46:22.390Z,2.85
2022-11-08T16:48:57.236Z,3.70
2022-11-08T16:51:28.316Z,4.40
2022-11-08T16:53:55.373Z,5.18
2022-11-08T16:56:22.985Z,3.83
2022-11-08T16:58:50.495Z,3.55
2022-11-08T17:01:33.437Z,2.88
2022-11-08T17:04:00.601Z,2.90
2022-11-08T17:06:27.803Z,3.20
2022-11-08T17:08:54.925Z,4.15
2022-11-08T17:11:23.980Z,4.68
2022-11-08T17:13:52.812Z,4.55
2022-11-08T17:16:20.341Z,4.03
2022-11-08T17:18:52.439Z,4.70
2022-11-08T17:24:08.539Z,6.70
2022-11-08T17:26:35.903Z,5.13
2022-11-08T17:29:02.918Z,5.03
2022-11-08T17:31:30.222Z,5.97
2022-11-08T17:33:57.578Z,7.35
2022-11-08T17:36:24.981Z,5.85
2022-11-08T17:38:52.204Z,6.07
2022-11-08T17:41:19.296Z,6.32
2022-11-08T17:43:46.725Z,5.82
2022-11-08T17:46:14.324Z,6.22
2022-11-08T17:48:41.492Z,7.47
2022-11-08T17:51:09.650Z,5.70
2022-11-08T17:53:36.898Z,4.30
2022-11-08T17:56:06.317Z,3.92
2022-11-08T17:58:34.388Z,3.00
2022-11-08T18:01:04.963Z,3.40
2022-11-08T18:03:33.448Z,5.65
2022-11-08T18:06:04.868Z,5.03
2022-11-08T18:08:33.870Z,4.90
2022-11-08T18:11:02.237Z,5.32
2022-11-08T18:13:30.141Z,6.22
2022-11-08T18:16:06.991Z,5.72
2022-11-08T18:18:34.606Z,6.22
2022-11-08T18:21:01.789Z,7.70
2022-11-08T18:23:28.772Z,6.68
2022-11-08T18:25:56.510Z,6.47
2022-11-08T18:28:24.838Z,5.50
2022-11-08T18:30:52.588Z,5.90
2022-11-08T18:33:21.523Z,5.97
2022-11-08T18:35:49.022Z,4.78
2022-11-08T18:38:16.131Z,5.15
2022-11-08T18:40:49.620Z,5.45
2022-11-08T18:43:17.121Z,4.97
2022-11-08T18:45:44.709Z,5.00
2022-11-08T18:48:11.781Z,5.13
2022-11-08T18:50:39.163Z,5.75
2022-11-08T18:53:07.172Z,5.50
2022-11-08T18:55:35.077Z,5.80
2022-11-08T18:58:02.610Z,5.82
2022-11-08T19:00:29.748Z,6.43
2022-11-08T19:02:56.881Z,6.13
2022-11-08T19:05:24.083Z,6.35
2022-11-08T19:07:51.261Z,6.00
2022-11-08T19:10:18.482Z,5.40
2022-11-08T19:12:45.861Z,5.47
2022-11-08T19:15:13.568Z,7.45
2022-11-08T19:17:41.059Z,7.28
2022-11-08T19:20:08.841Z,7.65
2022-11-08T19:22:36.067Z,8.32
2022-11-08T19:25:03.482Z,11.10
2022-11-08T19:27:30.513Z,10.98
2022-11-08T19:30:22.792Z,9.07
2022-11-08T19:32:50.295Z,8.43
2022-11-08T19:35:17.541Z,7.63
2022-11-08T19:37:45.115Z,6.63
2022-11-08T19:40:12.877Z,6.20
2022-11-08T19:42:40.047Z,5.35
2022-11-08T19:45:08.254Z,6.05
2022-11-08T19:47:35.510Z,6.15
2022-11-08T19:50:02.661Z,5.70
2022-11-08T19:52:29.682Z,6.05
2022-11-08T19:54:56.914Z,5.63
2022-11-08T19:57:24.046Z,6.28
2022-11-08T19:59:51.267Z,6.70
2022-11-08T20:02:18.583Z,6.18
2022-11-08T20:04:45.802Z,5.95
2022-11-08T20:07:13.039Z,5.75
2022-11-08T20:09:40.146Z,6.60
2022-11-08T20:12:07.615Z,6.32
2022-11-08T20:14:34.983Z,5.57
2022-11-08T20:17:02.083Z,6.20
2022-11-08T20:19:29.359Z,6.22
2022-11-08T20:21:57.144Z,6.57
2022-11-08T20:24:24.500Z,7.00
2022-11-08T20:26:51.688Z,7.00
2022-11-08T20:29:19.097Z,7.85
2022-11-08T20:31:46.323Z,7.68
2022-11-08T20:34:13.400Z,7.07
2022-11-08T20:36:41.940Z,6.03
2022-11-08T20:39:10.820Z,5.68
2022-11-08T20:41:39.159Z,6.10
2022-11-08T20:44:10.224Z,5.70
2022-11-08T20:46:38.674Z,4.93
2022-11-08T20:49:06.599Z,5.22
2022-11-08T20:51:34.899Z,5.30
2022-11-08T20:54:02.491Z,5.55
2022-11-08T20:56:30.562Z,4.97
2022-11-08T20:58:57.718Z,4.70
2022-11-08T21:01:28.106Z,4.57
2022-11-08T21:03:56.114Z,4.22
2022-11-08T21:06:26.077Z,4.32
2022-11-08T21:09:00.073Z,4.80
2022-11-08T21:11:30.458Z,4.38
2022-11-08T21:13:58.166Z,3.88
2022-11-08T21:16:46.868Z,3.45
2022-11-08T21:19:13.772Z,3.78
2022-11-08T21:21:40.959Z,4.07
2022-11-08T21:24:08.653Z,3.88
2022-11-08T21:26:36.857Z,3.92
2022-11-08T21:29:07.549Z,4.03
2022-11-08T21:31:34.813Z,4.18
2022-11-08T21:34:01.898Z,5.25
2022-11-08T21:36:29.379Z,5.60
2022-11-08T21:38:56.430Z,5.28
2022-11-08T21:41:23.679Z,4.20
2022-11-08T21:43:50.755Z,4.55
2022-11-08T21:46:26.402Z,4.13
2022-11-08T21:48:59.164Z,4.07
2022-11-08T21:51:27.413Z,3.72
2022-11-08T21:53:56.314Z,3.90
2022-11-08T21:56:26.214Z,3.78
2022-11-08T21:58:53.523Z,3.65
2022-11-08T22:01:25.385Z,3.20
2022-11-08T22:03:54.461Z,2.92
2022-11-08T22:06:22.759Z,3.28
2022-11-08T22:08:50.018Z,3.03
2022-11-08T22:11:17.290Z,3.15
2022-11-08T22:13:44.484Z,3.38
2022-11-08T22:16:11.468Z,3.45
2022-11-08T22:21:38.450Z,2.72
2022-11-08T22:24:23.601Z,2.90
2022-11-08T22:26:52.249Z,3.08
2022-11-08T22:29:19.789Z,2.88
2022-11-08T22:31:47.485Z,3.15
2022-11-08T22:34:15.320Z,2.85
2022-11-08T22:36:45.657Z,3.28
2022-11-08T22:39:19.320Z,2.90
2022-11-08T22:41:50.125Z,3.03
2022-11-08T22:44:18.221Z,2.70
2022-11-08T22:46:47.241Z,2.78
2022-11-08T22:49:16.506Z,2.80
2022-11-08T22:51:44.232Z,2.78
2022-11-08T22:54:11.957Z,2.83
2022-11-08T22:56:40.469Z,3.20
2022-11-08T22:59:08.015Z,3.08
2022-11-08T23:01:35.426Z,2.90
2022-11-08T23:04:02.849Z,2.67
2022-11-08T23:06:29.932Z,2.58
2022-11-08T23:08:57.276Z,2.30
2022-11-08T23:11:42.994Z,2.40
2022-11-08T23:14:33.961Z,2.50
2022-11-08T23:17:04.225Z,2.33
2022-11-08T23:19:50.109Z,2.20
2022-11-08T23:22:36.927Z,2.40
2022-11-08T23:25:04.737Z,2.38
2022-11-08T23:27:50.631Z,2.53
2022-11-08T23:30:37.777Z,2.60
2022-11-08T23:33:06.939Z,2.20
2022-11-08T23:35:34.250Z,2.47
2022-11-08T23:38:01.576Z,2.53
2022-11-08T23:40:47.409Z,2.35
2022-11-08T23:43:36.627Z,1.80
2022-11-08T23:46:12.814Z,2.38
2022-11-08T23:48:41.216Z,2.08
2022-11-08T23:51:08.678Z,1.98
2022-11-08T23:53:37.289Z,2.08
2022-11-08T23:56:05.661Z,2.20
2022-11-08T23:58:33.592Z,1.77
